createdAt,value
2022-10-14T00:01:27.141Z,28.53
2022-10-14T00:03:56.858Z,27.00
2022-10-14T00:06:27.742Z,27.27
2022-10-14T00:09:00.585Z,27.33
2022-10-14T00:11:31.338Z,24.87
2022-10-14T00:14:01.516Z,25.27
2022-10-14T00:16:31.984Z,27.20
2022-10-14T00:19:01.951Z,26.03
2022-10-14T00:21:31.606Z,27.23
2022-10-14T00:23:59.997Z,29.40
2022-10-14T00:26:30.977Z,26.00
2022-10-14T00:29:00.335Z,26.67
2022-10-14T00:31:32.613Z,28.47
2022-10-14T00:34:02.578Z,25.97
2022-10-14T00:36:31.050Z,28.97
2022-10-14T00:38:59.274Z,26.83
2022-10-14T00:41:30.193Z,25.23
2022-10-14T00:44:01.824Z,24.83
2022-10-14T00:46:32.043Z,27.30
2022-10-14T00:49:08.887Z,30.47
2022-10-14T00:51:39.959Z,27.43
2022-10-14T00:54:09.161Z,27.63
2022-10-14T00:56:38.040Z,26.17
2022-10-14T00:59:12.903Z,25.90
2022-10-14T01:01:41.155Z,28.00
2022-10-14T01:04:10.713Z,26.00
2022-10-14T01:06:48.973Z,28.73
2022-10-14T01:09:29.068Z,26.93
2022-10-14T01:12:28.024Z,27.83
2022-10-14T01:15:05.158Z,25.90
2022-10-14T01:17:45.389Z,25.43
2022-10-14T01:20:39.952Z,24.10
2022-10-14T01:23:32.171Z,26.83
2022-10-14T01:26:14.607Z,24.87
2022-10-14T01:28:53.215Z,28.70
2022-10-14T01:31:25.855Z,27.63
2022-10-14T01:33:57.940Z,25.40
2022-10-14T01:36:33.479Z,29.00
2022-10-14T01:39:09.777Z,29.13
2022-10-14T01:41:44.399Z,29.73
2022-10-14T01:44:15.508Z,31.73
2022-10-14T01:46:48.616Z,34.00
2022-10-14T01:49:21.158Z,30.97
2022-10-14T01:51:53.960Z,32.30
2022-10-14T01:54:26.486Z,31.70
2022-10-14T01:56:56.793Z,34.07
2022-10-14T01:59:25.885Z,30.13
2022-10-14T02:01:55.478Z,33.17
2022-10-14T02:04:24.741Z,31.83
2022-10-14T02:07:01.207Z,33.10
2022-10-14T02:09:37.402Z,29.90
2022-10-14T02:12:21.508Z,32.27
2022-10-14T02:14:54.159Z,31.87
2022-10-14T02:17:31.739Z,32.03
2022-10-14T02:20:06.474Z,32.83
2022-10-14T02:22:39.345Z,31.23
2022-10-14T02:25:27.579Z,31.33
2022-10-14T02:27:56.128Z,29.30
2022-10-14T02:30:27.126Z,29.00
2022-10-14T02:33:01.274Z,30.97
2022-10-14T02:35:31.901Z,30.77
2022-10-14T02:38:00.857Z,31.10
2022-10-14T02:40:34.549Z,32.10
2022-10-14T02:43:02.853Z,28.73
2022-10-14T02:45:31.002Z,29.03
2022-10-14T02:48:02.506Z,32.20
2022-10-14T02:50:31.187Z,30.37
2022-10-14T02:52:59.394Z,32.80
2022-10-14T02:55:27.765Z,31.80
2022-10-14T02:57:56.600Z,29.13
2022-10-14T03:00:27.480Z,29.10
2022-10-14T03:02:57.835Z,32.93
2022-10-14T03:05:31.230Z,31.47
2022-10-14T03:07:59.559Z,35.57
2022-10-14T03:10:29.817Z,34.13
2022-10-14T03:12:58.872Z,29.73
2022-10-14T03:15:32.043Z,35.03
2022-10-14T03:18:01.000Z,32.20
2022-10-14T03:20:39.722Z,32.10
2022-10-14T03:23:09.862Z,27.97
2022-10-14T03:25:39.498Z,30.40
2022-10-14T03:28:16.095Z,30.30
2022-10-14T03:30:51.333Z,32.00
2022-10-14T03:33:34.206Z,31.10
2022-10-14T03:36:15.525Z,36.30
2022-10-14T03:38:49.054Z,33.63
2022-10-14T03:41:37.538Z,27.13
2022-10-14T03:44:07.053Z,31.27
2022-10-14T03:46:37.591Z,28.67
2022-10-14T03:49:06.127Z,27.63
2022-10-14T03:51:36.075Z,28.50
2022-10-14T03:54:14.840Z,34.73
2022-10-14T03:56:43.140Z,28.03
2022-10-14T03:59:11.619Z,27.80
2022-10-14T04:01:40.230Z,28.57
2022-10-14T04:04:19.831Z,29.63
2022-10-14T04:06:50.784Z,30.50
2022-10-14T04:09:21.382Z,33.13
2022-10-14T04:11:49.926Z,28.07
2022-10-14T04:14:38.049Z,28.03
2022-10-14T04:17:07.472Z,31.70
2022-10-14T04:19:35.658Z,29.17
2022-10-14T04:22:06.093Z,31.93
2022-10-14T04:24:35.255Z,33.60
2022-10-14T04:27:03.677Z,32.43
2022-10-14T04:29:41.216Z,29.27
2022-10-14T04:32:16.100Z,31.47
2022-10-14T04:34:44.577Z,34.80
2022-10-14T04:37:17.562Z,26.33
2022-10-14T04:39:55.148Z,30.50
2022-10-14T04:42:24.424Z,27.20
2022-10-14T04:44:58.041Z,29.93
2022-10-14T04:47:37.451Z,27.67
2022-10-14T04:50:06.798Z,26.33
2022-10-14T04:52:38.071Z,26.10
2022-10-14T04:55:13.746Z,27.40
2022-10-14T04:57:44.326Z,24.90
2022-10-14T05:00:14.474Z,21.13
2022-10-14T05:03:05.740Z,24.00
2022-10-14T05:05:37.077Z,24.20
2022-10-14T05:08:08.686Z,25.27
2022-10-14T05:10:43.138Z,29.47
2022-10-14T05:13:18.642Z,26.97
2022-10-14T05:16:13.326Z,23.10
2022-10-14T05:18:41.639Z,27.60
2022-10-14T05:21:12.177Z,25.07
2022-10-14T05:23:52.700Z,25.93
2022-10-14T05:26:21.209Z,23.60
2022-10-14T05:28:52.892Z,23.30
2022-10-14T05:31:22.596Z,26.57
2022-10-14T05:34:02.467Z,28.17
2022-10-14T05:36:30.728Z,25.27
2022-10-14T05:39:00.354Z,22.47
2022-10-14T05:41:35.090Z,23.63
2022-10-14T05:44:04.382Z,25.27
2022-10-14T05:46:33.161Z,23.13
2022-10-14T05:49:05.957Z,21.27
2022-10-14T05:51:37.786Z,22.23
2022-10-14T05:54:14.873Z,19.93
2022-10-14T05:56:44.984Z,21.57
2022-10-14T05:59:14.092Z,26.20
2022-10-14T06:01:43.741Z,22.60
2022-10-14T06:04:18.725Z,20.40
2022-10-14T06:06:47.583Z,22.03
2022-10-14T06:09:18.712Z,25.43
2022-10-14T06:11:46.940Z,19.00
2022-10-14T06:14:15.239Z,25.10
2022-10-14T06:16:43.678Z,23.73
2022-10-14T06:19:11.955Z,22.43
2022-10-14T06:21:40.258Z,24.70
2022-10-14T06:24:08.994Z,22.80
2022-10-14T06:26:38.762Z,32.50
2022-10-14T06:29:07.122Z,26.53
2022-10-14T06:31:35.383Z,23.13
2022-10-14T06:34:06.075Z,31.67
2022-10-14T06:36:34.583Z,24.97
2022-10-14T06:39:02.951Z,30.43
2022-10-14T06:41:33.142Z,19.83
2022-10-14T06:44:02.726Z,19.40
2022-10-14T06:46:31.595Z,27.40
2022-10-14T06:48:59.819Z,19.90
2022-10-14T06:51:28.050Z,24.47
2022-10-14T06:53:56.254Z,23.00
2022-10-14T06:56:24.435Z,20.53
2022-10-14T06:58:54.768Z,19.33
2022-10-14T07:01:24.936Z,15.40
2022-10-14T07:03:55.904Z,17.40
2022-10-14T07:06:25.082Z,17.50
2022-10-14T07:08:53.201Z,17.67
2022-10-14T07:11:21.542Z,21.73
2022-10-14T07:13:49.776Z,18.13
2022-10-14T07:16:17.930Z,18.47
2022-10-14T07:18:47.539Z,16.40
2022-10-14T07:21:15.963Z,15.07
2022-10-14T07:23:44.173Z,17.93
2022-10-14T07:26:13.061Z,15.40
2022-10-14T07:28:41.256Z,18.40
2022-10-14T07:31:11.471Z,21.47
2022-10-14T07:33:40.928Z,18.67
2022-10-14T07:36:15.152Z,13.87
2022-10-14T07:38:46.241Z,17.20
2022-10-14T07:41:18.283Z,16.30
2022-10-14T07:43:47.661Z,17.90
2022-10-14T07:46:17.285Z,16.73
2022-10-14T07:48:56.772Z,27.20
2022-10-14T07:51:27.471Z,15.50
2022-10-14T07:53:56.197Z,17.83
2022-10-14T07:56:25.134Z,18.57
2022-10-14T07:58:53.657Z,18.87
2022-10-14T08:01:22.152Z,25.10
2022-10-14T08:03:50.489Z,17.00
2022-10-14T08:06:18.849Z,18.73
2022-10-14T08:08:48.449Z,23.67
2022-10-14T08:11:19.316Z,24.03
2022-10-14T08:13:47.829Z,25.17
2022-10-14T08:16:17.627Z,17.90
2022-10-14T08:18:46.781Z,23.13
2022-10-14T08:21:16.078Z,15.63
2022-10-14T08:23:44.577Z,22.00
2022-10-14T08:26:21.347Z,38.17
2022-10-14T08:28:52.266Z,31.53
2022-10-14T08:31:20.837Z,18.97
2022-10-14T08:33:49.363Z,21.93
2022-10-14T08:36:18.629Z,35.50
2022-10-14T08:38:47.152Z,72.10
2022-10-14T08:41:27.285Z,31.73
2022-10-14T08:44:06.995Z,48.27
2022-10-14T08:46:40.253Z,23.37
2022-10-14T08:49:16.780Z,13.73
2022-10-14T08:51:49.397Z,17.37
2022-10-14T08:54:27.297Z,13.77
2022-10-14T08:56:58.753Z,15.30
2022-10-14T08:59:28.137Z,20.90
2022-10-14T09:02:01.639Z,12.13
2022-10-14T09:04:39.258Z,11.17
2022-10-14T09:07:07.942Z,10.37
2022-10-14T09:09:43.019Z,14.27
2022-10-14T09:12:16.212Z,11.80
2022-10-14T09:14:48.478Z,11.97
2022-10-14T09:17:21.641Z,13.93
2022-10-14T09:19:53.425Z,10.07
2022-10-14T09:22:22.079Z,7.83
2022-10-14T09:24:50.585Z,13.63
2022-10-14T09:27:22.670Z,8.67
2022-10-14T09:29:54.384Z,9.57
2022-10-14T09:32:32.087Z,7.07
2022-10-14T09:35:00.473Z,9.47
2022-10-14T09:37:30.675Z,9.50
2022-10-14T09:40:03.117Z,7.63
2022-10-14T09:42:48.854Z,7.10
2022-10-14T09:45:19.594Z,14.23
2022-10-14T09:47:54.226Z,7.73
2022-10-14T09:50:26.241Z,10.23
2022-10-14T09:52:58.529Z,10.40
2022-10-14T09:55:26.948Z,9.82
2022-10-14T09:58:05.626Z,5.82
2022-10-14T10:00:39.591Z,7.65
2022-10-14T10:03:09.930Z,8.97
2022-10-14T10:05:40.690Z,8.90
2022-10-14T10:08:17.888Z,6.97
2022-10-14T10:11:03.711Z,7.30
2022-10-14T10:13:45.664Z,5.97
2022-10-14T10:16:23.437Z,4.55
2022-10-14T10:18:53.164Z,4.70
2022-10-14T10:21:26.554Z,6.30
2022-10-14T10:24:00.052Z,8.30
2022-10-14T10:26:31.900Z,8.67
2022-10-14T10:29:03.567Z,13.73
2022-10-14T10:32:07.587Z,9.00
2022-10-14T10:34:58.428Z,9.83
2022-10-14T10:37:29.410Z,10.33
2022-10-14T10:40:31.318Z,13.00
2022-10-14T10:43:33.812Z,11.30
2022-10-14T10:46:24.283Z,10.63
2022-10-14T10:48:57.807Z,11.55
2022-10-14T10:51:34.700Z,10.85
2022-10-14T10:54:20.361Z,13.13
2022-10-14T10:56:52.449Z,14.05
2022-10-14T10:59:35.324Z,13.23
2022-10-14T11:02:38.328Z,12.98
2022-10-14T11:05:13.676Z,15.52
2022-10-14T11:08:12.758Z,16.58
2022-10-14T11:11:09.656Z,15.35
2022-10-14T11:13:47.611Z,15.25
2022-10-14T11:16:26.670Z,17.02
2022-10-14T11:19:03.955Z,17.30
2022-10-14T11:21:40.595Z,18.35
2022-10-14T11:27:00.681Z,16.63
2022-10-14T11:29:53.885Z,17.08
2022-10-14T11:32:26.363Z,19.42
2022-10-14T11:35:06.074Z,19.00
2022-10-14T11:37:45.464Z,20.95
2022-10-14T11:40:22.788Z,15.98
2022-10-14T11:43:02.569Z,15.93
2022-10-14T11:45:49.960Z,17.88
2022-10-14T11:48:28.322Z,16.88
2022-10-14T11:51:03.220Z,17.73
2022-10-14T11:53:43.036Z,20.40
2022-10-14T11:56:24.232Z,20.10
2022-10-14T11:58:54.800Z,19.13
2022-10-14T12:01:34.190Z,21.52
2022-10-14T12:04:12.137Z,19.83
2022-10-14T12:06:46.591Z,21.50
2022-10-14T12:09:24.704Z,20.13
2022-10-14T12:11:58.284Z,22.35
2022-10-14T12:14:35.005Z,23.15
2022-10-14T12:17:06.743Z,24.52
2022-10-14T12:19:35.422Z,22.58
2022-10-14T12:22:14.687Z,23.25
2022-10-14T12:24:45.992Z,26.17
2022-10-14T12:27:16.189Z,24.80
2022-10-14T12:29:47.727Z,23.00
2022-10-14T12:32:24.630Z,25.45
2022-10-14T12:34:54.915Z,23.38
2022-10-14T12:37:52.567Z,24.23
2022-10-14T12:40:29.317Z,23.20
2022-10-14T12:43:16.904Z,24.40
2022-10-14T12:46:00.582Z,24.63
2022-10-14T12:48:33.304Z,22.92
2022-10-14T12:51:13.520Z,20.60
2022-10-14T12:53:58.114Z,21.70
2022-10-14T12:56:36.590Z,21.60
2022-10-14T12:59:07.778Z,22.58
2022-10-14T13:01:39.157Z,23.58
2022-10-14T13:04:20.273Z,20.65
2022-10-14T13:07:39.803Z,22.40
2022-10-14T13:10:46.811Z,23.13
2022-10-14T13:13:52.480Z,22.98
2022-10-14T13:17:03.516Z,21.80
2022-10-14T13:19:45.515Z,20.75
2022-10-14T13:22:36.482Z,20.85
2022-10-14T13:25:12.294Z,22.65
2022-10-14T13:28:03.472Z,23.15
2022-10-14T13:30:37.787Z,20.00
2022-10-14T13:33:15.473Z,21.45
2022-10-14T13:35:52.406Z,20.88
2022-10-14T13:38:23.708Z,21.90
2022-10-14T13:40:55.521Z,20.38
2022-10-14T13:43:39.624Z,20.67
2022-10-14T13:46:13.552Z,19.73
2022-10-14T13:48:45.650Z,20.45
2022-10-14T13:51:37.687Z,20.10
2022-10-14T13:54:21.083Z,19.08
2022-10-14T14:02:54.515Z,18.87
2022-10-14T14:05:27.954Z,21.42
2022-10-14T14:08:30.554Z,29.48
2022-10-14T14:11:14.899Z,20.52
2022-10-14T14:13:54.586Z,16.67
2022-10-14T14:16:31.009Z,18.38
2022-10-14T14:19:14.613Z,16.30
2022-10-14T14:21:42.794Z,17.50
2022-10-14T14:24:19.165Z,16.15
2022-10-14T14:26:55.441Z,17.50
2022-10-14T14:29:28.678Z,17.35
2022-10-14T14:32:07.197Z,22.15
2022-10-14T14:34:38.089Z,16.02
2022-10-14T14:40:00.030Z,16.80
2022-10-14T14:42:31.963Z,17.77
2022-10-14T14:45:04.286Z,21.10
2022-10-14T14:47:34.711Z,16.97
2022-10-14T14:50:28.954Z,18.85
2022-10-14T14:52:53.217Z,20.17
2022-10-14T14:56:07.880Z,21.33
2022-10-14T14:58:44.563Z,18.40
2022-10-14T15:01:20.864Z,18.75
2022-10-14T15:04:13.373Z,19.20
2022-10-14T15:06:51.024Z,18.60
2022-10-14T15:09:25.056Z,16.63
2022-10-14T15:11:55.849Z,20.98
2022-10-14T15:14:33.777Z,20.35
2022-10-14T15:17:05.689Z,16.63
2022-10-14T15:19:38.888Z,17.38
2022-10-14T15:22:32.693Z,15.80
2022-10-14T15:25:12.044Z,17.50
2022-10-14T15:27:48.359Z,17.13
2022-10-14T15:30:27.083Z,15.87
2022-10-14T15:32:58.553Z,17.05
2022-10-14T15:35:29.074Z,15.23
2022-10-14T15:37:57.356Z,19.83
2022-10-14T15:40:29.712Z,15.30
2022-10-14T15:42:58.239Z,18.05
2022-10-14T15:45:27.263Z,18.00
2022-10-14T15:48:02.671Z,18.03
2022-10-14T15:50:32.373Z,19.40
2022-10-14T15:53:00.607Z,19.27
2022-10-14T15:55:35.910Z,20.53
2022-10-14T15:58:07.430Z,18.88
2022-10-14T16:00:36.331Z,18.25
2022-10-14T16:03:06.418Z,20.73
2022-10-14T16:05:38.604Z,19.33
2022-10-14T16:08:13.890Z,19.83
2022-10-14T16:10:44.731Z,22.87
2022-10-14T16:13:13.344Z,18.57
2022-10-14T16:15:47.751Z,22.60
2022-10-14T16:18:18.294Z,19.90
2022-10-14T16:20:47.880Z,22.00
2022-10-14T16:23:16.750Z,20.80
2022-10-14T16:25:46.571Z,22.90
2022-10-14T16:28:21.761Z,22.57
2022-10-14T16:30:50.610Z,21.07
2022-10-14T16:33:21.622Z,19.70
2022-10-14T16:35:54.439Z,20.77
2022-10-14T16:38:24.469Z,19.83
2022-10-14T16:40:55.585Z,22.93
2022-10-14T16:43:23.927Z,24.57
2022-10-14T16:45:52.272Z,20.87
2022-10-14T16:48:20.842Z,19.83
2022-10-14T16:50:53.632Z,21.77
2022-10-14T16:53:43.584Z,23.30
2022-10-14T16:56:35.711Z,22.27
2022-10-14T16:59:05.359Z,24.77
2022-10-14T17:01:33.685Z,21.70
2022-10-14T17:04:03.523Z,22.77
2022-10-14T17:06:33.639Z,23.10
2022-10-14T17:09:01.908Z,23.47
2022-10-14T17:11:30.151Z,23.63
2022-10-14T17:14:01.101Z,24.10
2022-10-14T17:16:29.729Z,21.90
2022-10-14T17:18:58.946Z,24.93
2022-10-14T17:21:29.521Z,23.63
2022-10-14T17:24:02.550Z,22.70
2022-10-14T17:26:31.992Z,22.80
2022-10-14T17:29:00.617Z,23.63
2022-10-14T17:31:29.655Z,22.53
2022-10-14T17:33:59.755Z,23.60
2022-10-14T17:36:30.863Z,25.37
2022-10-14T17:39:00.984Z,25.80
2022-10-14T17:41:30.922Z,28.07
2022-10-14T17:44:01.440Z,26.10
2022-10-14T17:46:31.571Z,24.80
2022-10-14T17:49:03.749Z,25.43
2022-10-14T17:51:32.822Z,22.17
2022-10-14T17:54:03.956Z,28.70
2022-10-14T17:56:33.675Z,26.70
2022-10-14T17:59:03.677Z,26.17
2022-10-14T18:01:43.750Z,26.10
2022-10-14T18:06:55.113Z,26.93
2022-10-14T18:09:24.679Z,28.80
2022-10-14T18:12:09.883Z,29.33
2022-10-14T18:14:38.738Z,26.63
2022-10-14T18:17:07.662Z,30.23
2022-10-14T18:19:36.065Z,32.67
2022-10-14T18:22:06.599Z,31.27
2022-10-14T18:24:38.408Z,31.53
2022-10-14T18:27:07.555Z,26.70
2022-10-14T18:29:35.835Z,30.13
2022-10-14T18:32:04.378Z,27.70
2022-10-14T18:34:33.216Z,34.30
2022-10-14T18:37:01.498Z,31.90
2022-10-14T18:39:29.734Z,32.17
2022-10-14T18:41:59.472Z,34.63
2022-10-14T18:44:29.917Z,33.07
2022-10-14T18:46:58.141Z,36.57
2022-10-14T18:49:26.379Z,32.50
2022-10-14T18:51:55.271Z,35.10
2022-10-14T18:54:24.959Z,37.10
2022-10-14T18:56:54.845Z,39.63
2022-10-14T18:59:24.935Z,35.33
2022-10-14T19:01:54.031Z,33.57
2022-10-14T19:04:24.581Z,35.53
2022-10-14T19:06:52.941Z,42.10
2022-10-14T19:09:24.881Z,44.87
2022-10-14T19:11:53.308Z,47.50
2022-10-14T19:14:22.605Z,43.80
2022-10-14T19:16:52.237Z,41.03
2022-10-14T19:19:20.936Z,39.17
2022-10-14T19:21:54.442Z,42.57
2022-10-14T19:24:22.989Z,42.63
2022-10-14T19:26:51.617Z,43.47
2022-10-14T19:29:19.895Z,41.47
2022-10-14T19:31:51.035Z,41.77
2022-10-14T19:34:22.907Z,45.07
2022-10-14T19:36:52.999Z,48.40
2022-10-14T19:39:21.374Z,45.27
2022-10-14T19:41:49.548Z,43.37
2022-10-14T19:44:18.264Z,47.40
2022-10-14T19:46:46.960Z,42.87
2022-10-14T19:49:16.783Z,41.90
2022-10-14T19:51:46.471Z,40.30
2022-10-14T19:54:15.538Z,41.60
2022-10-14T19:56:44.201Z,41.97
2022-10-14T19:59:13.567Z,40.83
2022-10-14T20:01:41.969Z,44.77
2022-10-14T20:04:10.369Z,40.97
2022-10-14T20:06:40.102Z,42.07
2022-10-14T20:09:09.869Z,45.37
2022-10-14T20:11:38.258Z,46.43
2022-10-14T20:14:06.509Z,41.87
2022-10-14T20:16:35.146Z,43.53
2022-10-14T20:19:04.119Z,43.57
2022-10-14T20:21:32.351Z,42.97
2022-10-14T20:24:00.750Z,42.47
2022-10-14T20:26:31.037Z,42.23
2022-10-14T20:28:59.440Z,40.27
2022-10-14T20:31:27.927Z,42.23
2022-10-14T20:33:58.976Z,40.37
2022-10-14T20:36:27.480Z,41.70
2022-10-14T20:38:55.734Z,39.90
2022-10-14T20:41:25.886Z,41.27
2022-10-14T20:43:56.972Z,41.10
2022-10-14T20:46:25.596Z,40.13
2022-10-14T20:48:57.085Z,33.50
2022-10-14T20:51:28.133Z,35.73
2022-10-14T20:54:01.711Z,34.87
2022-10-14T20:56:34.046Z,34.70
2022-10-14T20:59:06.198Z,31.30
2022-10-14T21:01:36.171Z,34.50
2022-10-14T21:04:07.160Z,32.80
2022-10-14T21:06:36.354Z,32.33
2022-10-14T21:09:04.954Z,32.37
2022-10-14T21:11:33.305Z,30.47
2022-10-14T21:14:03.739Z,33.93
2022-10-14T21:16:34.290Z,30.33
2022-10-14T21:19:04.947Z,31.20
2022-10-14T21:21:37.054Z,31.13
2022-10-14T21:24:06.070Z,28.53
2022-10-14T21:26:34.515Z,27.60
2022-10-14T21:29:04.683Z,29.13
2022-10-14T21:31:33.060Z,26.47
2022-10-14T21:34:05.788Z,28.33
2022-10-14T21:36:35.355Z,29.03
2022-10-14T21:39:07.287Z,27.97
2022-10-14T21:41:36.183Z,27.10
2022-10-14T21:44:06.604Z,29.03
2022-10-14T21:46:35.493Z,28.67
2022-10-14T21:49:03.833Z,26.93
2022-10-14T21:51:35.382Z,27.67
2022-10-14T21:54:04.145Z,26.83
2022-10-14T21:56:32.402Z,29.37
2022-10-14T21:59:00.676Z,28.00
2022-10-14T22:01:31.025Z,26.20
2022-10-14T22:04:01.308Z,28.30
2022-10-14T22:06:29.890Z,26.83
2022-10-14T22:09:00.157Z,26.30
2022-10-14T22:11:30.016Z,24.40
2022-10-14T22:14:00.326Z,28.03
2022-10-14T22:16:30.748Z,25.30
2022-10-14T22:19:00.401Z,21.93
2022-10-14T22:21:32.721Z,23.27
2022-10-14T22:24:02.750Z,25.60
2022-10-14T22:26:31.368Z,21.43
2022-10-14T22:29:03.180Z,23.20
2022-10-14T22:31:34.024Z,23.77
2022-10-14T22:34:02.701Z,21.77
2022-10-14T22:36:32.241Z,25.13
2022-10-14T22:39:02.327Z,24.10
2022-10-14T22:41:35.126Z,22.40
2022-10-14T22:44:05.404Z,18.93
2022-10-14T22:46:36.404Z,22.90
2022-10-14T22:49:04.783Z,20.40
2022-10-14T22:51:35.571Z,20.67
2022-10-14T22:54:04.173Z,22.37
2022-10-14T22:56:33.404Z,20.73
2022-10-14T22:59:04.254Z,20.00
2022-10-14T23:01:33.893Z,21.53
2022-10-14T23:04:03.193Z,22.43
2022-10-14T23:06:32.647Z,20.00
2022-10-14T23:09:01.147Z,23.67
2022-10-14T23:11:30.870Z,25.03
2022-10-14T23:14:02.822Z,20.33
2022-10-14T23:16:36.280Z,23.87
2022-10-14T23:19:04.787Z,22.47
2022-10-14T23:21:34.726Z,23.77
2022-10-14T23:24:06.385Z,23.43
2022-10-14T23:26:35.985Z,20.37
2022-10-14T23:29:06.944Z,21.87
2022-10-14T23:31:37.813Z,21.50
2022-10-14T23:34:08.423Z,21.57
2022-10-14T23:36:38.137Z,22.57
2022-10-14T23:39:09.074Z,22.37
2022-10-14T23:41:37.452Z,23.63
2022-10-14T23:44:05.607Z,21.70
2022-10-14T23:46:33.799Z,22.37
2022-10-14T23:49:26.110Z,21.50
2022-10-14T23:51:51.600Z,19.87
2022-10-14T23:54:20.063Z,21.67
2022-10-14T23:56:48.268Z,20.57
2022-10-14T23:59:16.969Z,24.00
